sensor_id;sensor_type;location;lat;lon;timestamp;P1;durP1;ratioP1;P2;durP2;ratioP2
18265;SDS011;9259;48.194;16.322;2022-08-01T00:00:00;5.80;;;3.55;;
18265;SDS011;9259;48.194;16.322;2022-08-01T00:02:29;4.88;;;3.83;;
18265;SDS011;9259;48.194;16.322;2022-08-01T00:04:57;6.82;;;3.90;;
18265;SDS011;9259;48.194;16.322;2022-08-01T00:07:28;5.68;;;3.50;;
18265;SDS011;9259;48.194;16.322;2022-08-01T00:09:56;5.90;;;3.58;;
18265;SDS011;9259;48.194;16.322;2022-08-01T00:12:24;4.70;;;3.53;;
18265;SDS011;9259;48.194;16.322;2022-08-01T00:14:52;6.22;;;3.67;;
18265;SDS011;9259;48.194;16.322;2022-08-01T00:17:23;6.97;;;4.05;;
18265;SDS011;9259;48.194;16.322;2022-08-01T00:19:51;6.22;;;4.10;;
18265;SDS011;9259;48.194;16.322;2022-08-01T00:22:19;7.18;;;4.00;;
18265;SDS011;9259;48.194;16.322;2022-08-01T00:24:49;5.75;;;3.80;;
18265;SDS011;9259;48.194;16.322;2022-08-01T00:27:17;5.50;;;3.78;;
18265;SDS011;9259;48.194;16.322;2022-08-01T00:29:45;5.00;;;3.15;;
18265;SDS011;9259;48.194;16.322;2022-08-01T00:32:13;6.78;;;3.85;;
18265;SDS011;9259;48.194;16.322;2022-08-01T00:34:41;6.05;;;3.58;;
18265;SDS011;9259;48.194;16.322;2022-08-01T00:37:09;5.85;;;3.60;;
18265;SDS011;9259;48.194;16.322;2022-08-01T00:39:37;6.43;;;3.92;;
18265;SDS011;9259;48.194;16.322;2022-08-01T00:42:06;5.13;;;3.80;;
18265;SDS011;9259;48.194;16.322;2022-08-01T00:44:35;6.95;;;3.47;;
18265;SDS011;9259;48.194;16.322;2022-08-01T00:47:04;6.07;;;3.60;;
18265;SDS011;9259;48.194;16.322;2022-08-01T00:49:32;5.28;;;3.50;;
18265;SDS011;9259;48.194;16.322;2022-08-01T00:52:00;6.75;;;3.80;;
18265;SDS011;9259;48.194;16.322;2022-08-01T00:54:30;5.40;;;3.40;;
18265;SDS011;9259;48.194;16.322;2022-08-01T00:56:59;6.60;;;3.80;;
18265;SDS011;9259;48.194;16.322;2022-08-01T00:59:28;5.93;;;3.78;;
18265;SDS011;9259;48.194;16.322;2022-08-01T01:01:56;6.57;;;4.07;;
18265;SDS011;9259;48.194;16.322;2022-08-01T01:04:24;6.00;;;3.50;;
18265;SDS011;9259;48.194;16.322;2022-08-01T01:06:56;10.32;;;3.88;;
18265;SDS011;9259;48.194;16.322;2022-08-01T01:09:31;9.65;;;3.70;;
18265;SDS011;9259;48.194;16.322;2022-08-01T01:12:03;6.00;;;3.97;;
18265;SDS011;9259;48.194;16.322;2022-08-01T01:14:41;7.57;;;3.85;;
18265;SDS011;9259;48.194;16.322;2022-08-01T01:17:12;8.25;;;3.60;;
18265;SDS011;9259;48.194;16.322;2022-08-01T01:19:44;6.95;;;3.88;;
18265;SDS011;9259;48.194;16.322;2022-08-01T01:25:09;4.70;;;3.35;;
18265;SDS011;9259;48.194;16.322;2022-08-01T01:27:49;6.40;;;4.05;;
18265;SDS011;9259;48.194;16.322;2022-08-01T01:30:24;3.83;;;3.42;;
18265;SDS011;9259;48.194;16.322;2022-08-01T01:32:53;5.85;;;3.65;;
18265;SDS011;9259;48.194;16.322;2022-08-01T01:35:22;8.80;;;3.72;;
18265;SDS011;9259;48.194;16.322;2022-08-01T01:37:53;5.55;;;3.65;;
18265;SDS011;9259;48.194;16.322;2022-08-01T01:40:23;6.13;;;4.10;;
18265;SDS011;9259;48.194;16.322;2022-08-01T01:42:53;5.43;;;3.67;;
18265;SDS011;9259;48.194;16.322;2022-08-01T01:45:24;5.10;;;3.70;;
18265;SDS011;9259;48.194;16.322;2022-08-01T01:47:53;5.55;;;4.03;;
18265;SDS011;9259;48.194;16.322;2022-08-01T01:50:21;6.63;;;4.10;;
18265;SDS011;9259;48.194;16.322;2022-08-01T01:52:50;7.10;;;3.65;;
18265;SDS011;9259;48.194;16.322;2022-08-01T01:55:22;5.15;;;3.70;;
18265;SDS011;9259;48.194;16.322;2022-08-01T01:57:51;7.10;;;4.03;;
18265;SDS011;9259;48.194;16.322;2022-08-01T02:00:20;5.43;;;3.60;;
18265;SDS011;9259;48.194;16.322;2022-08-01T02:02:50;6.90;;;3.63;;
18265;SDS011;9259;48.194;16.322;2022-08-01T02:05:18;5.93;;;3.15;;
18265;SDS011;9259;48.194;16.322;2022-08-01T02:07:47;4.65;;;3.40;;
18265;SDS011;9259;48.194;16.322;2022-08-01T02:10:16;8.50;;;3.55;;
18265;SDS011;9259;48.194;16.322;2022-08-01T02:12:45;5.60;;;3.70;;
18265;SDS011;9259;48.194;16.322;2022-08-01T02:15:14;4.15;;;3.50;;
18265;SDS011;9259;48.194;16.322;2022-08-01T02:17:44;4.22;;;3.33;;
18265;SDS011;9259;48.194;16.322;2022-08-01T02:20:15;4.63;;;3.22;;
18265;SDS011;9259;48.194;16.322;2022-08-01T02:22:46;5.70;;;3.42;;
18265;SDS011;9259;48.194;16.322;2022-08-01T02:25:17;4.07;;;3.15;;
18265;SDS011;9259;48.194;16.322;2022-08-01T02:27:51;9.25;;;3.75;;
18265;SDS011;9259;48.194;16.322;2022-08-01T02:30:24;5.07;;;3.55;;
18265;SDS011;9259;48.194;16.322;2022-08-01T02:32:58;4.55;;;3.22;;
18265;SDS011;9259;48.194;16.322;2022-08-01T02:35:32;3.70;;;2.97;;
18265;SDS011;9259;48.194;16.322;2022-08-01T02:38:03;5.18;;;3.42;;
18265;SDS011;9259;48.194;16.322;2022-08-01T02:40:33;7.50;;;3.33;;
18265;SDS011;9259;48.194;16.322;2022-08-01T02:43:03;4.53;;;3.15;;
18265;SDS011;9259;48.194;16.322;2022-08-01T02:45:32;5.20;;;3.33;;
18265;SDS011;9259;48.194;16.322;2022-08-01T02:48:05;4.53;;;3.05;;
18265;SDS011;9259;48.194;16.322;2022-08-01T02:50:36;6.38;;;3.70;;
18265;SDS011;9259;48.194;16.322;2022-08-01T02:53:05;3.72;;;2.75;;
18265;SDS011;9259;48.194;16.322;2022-08-01T02:55:35;5.22;;;3.03;;
18265;SDS011;9259;48.194;16.322;2022-08-01T02:58:04;3.97;;;3.40;;
18265;SDS011;9259;48.194;16.322;2022-08-01T03:00:38;4.35;;;3.20;;
18265;SDS011;9259;48.194;16.322;2022-08-01T03:03:07;5.47;;;3.28;;
18265;SDS011;9259;48.194;16.322;2022-08-01T03:05:37;5.38;;;3.15;;
18265;SDS011;9259;48.194;16.322;2022-08-01T03:08:06;4.75;;;3.33;;
18265;SDS011;9259;48.194;16.322;2022-08-01T03:10:36;4.95;;;3.10;;
18265;SDS011;9259;48.194;16.322;2022-08-01T03:13:05;7.63;;;3.22;;
18265;SDS011;9259;48.194;16.322;2022-08-01T03:15:34;4.35;;;2.90;;
18265;SDS011;9259;48.194;16.322;2022-08-01T03:18:04;4.70;;;2.78;;
18265;SDS011;9259;48.194;16.322;2022-08-01T03:20:34;4.15;;;3.13;;
18265;SDS011;9259;48.194;16.322;2022-08-01T03:23:05;5.57;;;3.03;;
18265;SDS011;9259;48.194;16.322;2022-08-01T03:25:34;3.97;;;2.70;;
18265;SDS011;9259;48.194;16.322;2022-08-01T03:28:08;4.00;;;2.72;;
18265;SDS011;9259;48.194;16.322;2022-08-01T03:30:38;3.40;;;2.78;;
18265;SDS011;9259;48.194;16.322;2022-08-01T03:33:07;5.30;;;3.35;;
18265;SDS011;9259;48.194;16.322;2022-08-01T03:35:39;5.07;;;3.15;;
18265;SDS011;9259;48.194;16.322;2022-08-01T03:38:09;6.30;;;2.90;;
18265;SDS011;9259;48.194;16.322;2022-08-01T03:40:39;5.35;;;3.38;;
18265;SDS011;9259;48.194;16.322;2022-08-01T03:43:10;4.63;;;3.13;;
18265;SDS011;9259;48.194;16.322;2022-08-01T03:45:41;6.65;;;3.58;;
18265;SDS011;9259;48.194;16.322;2022-08-01T03:48:16;5.40;;;3.22;;
18265;SDS011;9259;48.194;16.322;2022-08-01T03:50:47;6.32;;;3.22;;
18265;SDS011;9259;48.194;16.322;2022-08-01T03:53:18;6.80;;;2.92;;
18265;SDS011;9259;48.194;16.322;2022-08-01T03:55:49;3.85;;;3.03;;
18265;SDS011;9259;48.194;16.322;2022-08-01T03:58:20;8.13;;;3.08;;
18265;SDS011;9259;48.194;16.322;2022-08-01T04:00:49;4.25;;;2.97;;
18265;SDS011;9259;48.194;16.322;2022-08-01T04:03:17;8.68;;;3.05;;
18265;SDS011;9259;48.194;16.322;2022-08-01T04:05:46;4.63;;;2.72;;
18265;SDS011;9259;48.194;16.322;2022-08-01T04:08:14;6.18;;;2.88;;
18265;SDS011;9259;48.194;16.322;2022-08-01T04:10:43;8.45;;;3.13;;
18265;SDS011;9259;48.194;16.322;2022-08-01T04:13:11;6.60;;;3.22;;
18265;SDS011;9259;48.194;16.322;2022-08-01T04:15:39;3.97;;;3.08;;
18265;SDS011;9259;48.194;16.322;2022-08-01T04:18:07;6.63;;;3.08;;
18265;SDS011;9259;48.194;16.322;2022-08-01T04:20:35;6.55;;;3.50;;
18265;SDS011;9259;48.194;16.322;2022-08-01T04:23:10;7.60;;;3.35;;
18265;SDS011;9259;48.194;16.322;2022-08-01T04:25:38;7.03;;;3.28;;
18265;SDS011;9259;48.194;16.322;2022-08-01T04:28:08;7.90;;;3.75;;
18265;SDS011;9259;48.194;16.322;2022-08-01T04:30:42;7.28;;;3.65;;
18265;SDS011;9259;48.194;16.322;2022-08-01T04:33:13;6.15;;;3.42;;
18265;SDS011;9259;48.194;16.322;2022-08-01T04:35:43;5.80;;;3.53;;
18265;SDS011;9259;48.194;16.322;2022-08-01T04:38:15;9.02;;;3.50;;
18265;SDS011;9259;48.194;16.322;2022-08-01T04:40:46;6.30;;;3.42;;
18265;SDS011;9259;48.194;16.322;2022-08-01T04:43:16;6.38;;;3.50;;
18265;SDS011;9259;48.194;16.322;2022-08-01T04:45:44;5.28;;;3.08;;
18265;SDS011;9259;48.194;16.322;2022-08-01T04:48:13;6.15;;;3.38;;
18265;SDS011;9259;48.194;16.322;2022-08-01T04:50:44;6.90;;;3.50;;
18265;SDS011;9259;48.194;16.322;2022-08-01T04:53:14;6.47;;;3.13;;
18265;SDS011;9259;48.194;16.322;2022-08-01T04:55:47;5.38;;;3.00;;
18265;SDS011;9259;48.194;16.322;2022-08-01T04:58:15;5.88;;;2.72;;
18265;SDS011;9259;48.194;16.322;2022-08-01T05:00:43;4.25;;;2.90;;
18265;SDS011;9259;48.194;16.322;2022-08-01T05:03:12;6.97;;;3.00;;
18265;SDS011;9259;48.194;16.322;2022-08-01T05:05:40;5.68;;;3.47;;
18265;SDS011;9259;48.194;16.322;2022-08-01T05:08:08;3.97;;;2.72;;
18265;SDS011;9259;48.194;16.322;2022-08-01T05:10:37;4.82;;;2.90;;
18265;SDS011;9259;48.194;16.322;2022-08-01T05:13:05;5.57;;;3.00;;
18265;SDS011;9259;48.194;16.322;2022-08-01T05:15:34;5.75;;;3.05;;
18265;SDS011;9259;48.194;16.322;2022-08-01T05:18:04;7.32;;;2.90;;
18265;SDS011;9259;48.194;16.322;2022-08-01T05:20:32;5.32;;;3.20;;
18265;SDS011;9259;48.194;16.322;2022-08-01T05:23:00;4.70;;;2.63;;
18265;SDS011;9259;48.194;16.322;2022-08-01T05:25:28;7.13;;;3.25;;
18265;SDS011;9259;48.194;16.322;2022-08-01T05:27:58;7.97;;;3.00;;
18265;SDS011;9259;48.194;16.322;2022-08-01T05:30:26;4.80;;;3.40;;
18265;SDS011;9259;48.194;16.322;2022-08-01T05:32:54;7.63;;;2.80;;
18265;SDS011;9259;48.194;16.322;2022-08-01T05:35:22;5.05;;;3.13;;
18265;SDS011;9259;48.194;16.322;2022-08-01T05:37:51;6.80;;;3.00;;
18265;SDS011;9259;48.194;16.322;2022-08-01T05:40:19;5.03;;;2.95;;
18265;SDS011;9259;48.194;16.322;2022-08-01T05:42:47;5.05;;;3.03;;
18265;SDS011;9259;48.194;16.322;2022-08-01T05:45:16;6.28;;;3.25;;
18265;SDS011;9259;48.194;16.322;2022-08-01T05:47:44;3.65;;;2.63;;
18265;SDS011;9259;48.194;16.322;2022-08-01T05:50:12;6.05;;;3.00;;
18265;SDS011;9259;48.194;16.322;2022-08-01T05:52:40;8.25;;;3.05;;
18265;SDS011;9259;48.194;16.322;2022-08-01T05:55:10;13.60;;;2.80;;
18265;SDS011;9259;48.194;16.322;2022-08-01T05:57:38;6.35;;;2.58;;
18265;SDS011;9259;48.194;16.322;2022-08-01T06:00:06;3.60;;;2.65;;
18265;SDS011;9259;48.194;16.322;2022-08-01T06:02:41;4.65;;;2.80;;
18265;SDS011;9259;48.194;16.322;2022-08-01T06:05:09;5.53;;;2.80;;
18265;SDS011;9259;48.194;16.322;2022-08-01T06:07:46;3.97;;;2.38;;
18265;SDS011;9259;48.194;16.322;2022-08-01T06:10:14;5.05;;;2.90;;
18265;SDS011;9259;48.194;16.322;2022-08-01T06:12:42;12.65;;;2.85;;
18265;SDS011;9259;48.194;16.322;2022-08-01T06:15:10;6.68;;;2.90;;
18265;SDS011;9259;48.194;16.322;2022-08-01T06:17:38;4.20;;;2.58;;
18265;SDS011;9259;48.194;16.322;2022-08-01T06:20:08;5.28;;;2.95;;
18265;SDS011;9259;48.194;16.322;2022-08-01T06:22:37;4.90;;;2.63;;
18265;SDS011;9259;48.194;16.322;2022-08-01T06:25:08;4.68;;;2.80;;
18265;SDS011;9259;48.194;16.322;2022-08-01T06:27:50;5.95;;;2.70;;
18265;SDS011;9259;48.194;16.322;2022-08-01T06:30:20;5.43;;;2.72;;
18265;SDS011;9259;48.194;16.322;2022-08-01T06:32:50;9.75;;;2.60;;
18265;SDS011;9259;48.194;16.322;2022-08-01T06:35:18;6.53;;;3.05;;
18265;SDS011;9259;48.194;16.322;2022-08-01T06:37:46;6.78;;;2.40;;
18265;SDS011;9259;48.194;16.322;2022-08-01T06:40:15;5.10;;;2.53;;
18265;SDS011;9259;48.194;16.322;2022-08-01T06:42:43;3.83;;;2.30;;
18265;SDS011;9259;48.194;16.322;2022-08-01T06:45:12;6.07;;;2.65;;
18265;SDS011;9259;48.194;16.322;2022-08-01T06:47:41;7.47;;;2.72;;
18265;SDS011;9259;48.194;16.322;2022-08-01T06:50:12;6.63;;;3.15;;
18265;SDS011;9259;48.194;16.322;2022-08-01T06:52:40;6.35;;;2.22;;
18265;SDS011;9259;48.194;16.322;2022-08-01T06:55:17;4.35;;;2.00;;
18265;SDS011;9259;48.194;16.322;2022-08-01T06:57:47;3.88;;;2.42;;
18265;SDS011;9259;48.194;16.322;2022-08-01T07:00:17;3.72;;;2.17;;
18265;SDS011;9259;48.194;16.322;2022-08-01T07:02:47;4.32;;;2.13;;
18265;SDS011;9259;48.194;16.322;2022-08-01T07:05:17;2.55;;;2.03;;
18265;SDS011;9259;48.194;16.322;2022-08-01T07:07:55;3.55;;;2.15;;
18265;SDS011;9259;48.194;16.322;2022-08-01T07:10:33;4.53;;;2.08;;
18265;SDS011;9259;48.194;16.322;2022-08-01T07:13:01;3.03;;;2.20;;
18265;SDS011;9259;48.194;16.322;2022-08-01T07:15:29;3.08;;;2.30;;
18265;SDS011;9259;48.194;16.322;2022-08-01T07:18:06;5.38;;;2.50;;
18265;SDS011;9259;48.194;16.322;2022-08-01T07:20:36;4.70;;;2.30;;
18265;SDS011;9259;48.194;16.322;2022-08-01T07:23:04;4.90;;;2.40;;
18265;SDS011;9259;48.194;16.322;2022-08-01T07:25:32;3.47;;;1.95;;
18265;SDS011;9259;48.194;16.322;2022-08-01T07:28:01;3.15;;;2.05;;
18265;SDS011;9259;48.194;16.322;2022-08-01T07:30:29;4.80;;;2.40;;
18265;SDS011;9259;48.194;16.322;2022-08-01T07:32:57;4.68;;;2.03;;
18265;SDS011;9259;48.194;16.322;2022-08-01T07:35:25;4.95;;;2.20;;
18265;SDS011;9259;48.194;16.322;2022-08-01T07:37:54;3.05;;;2.00;;
18265;SDS011;9259;48.194;16.322;2022-08-01T07:40:22;4.93;;;2.50;;
18265;SDS011;9259;48.194;16.322;2022-08-01T07:42:50;4.32;;;2.28;;
18265;SDS011;9259;48.194;16.322;2022-08-01T07:45:18;2.58;;;2.00;;
18265;SDS011;9259;48.194;16.322;2022-08-01T07:47:46;5.13;;;2.20;;
18265;SDS011;9259;48.194;16.322;2022-08-01T07:50:18;4.72;;;2.50;;
18265;SDS011;9259;48.194;16.322;2022-08-01T07:52:46;5.05;;;2.30;;
18265;SDS011;9259;48.194;16.322;2022-08-01T07:55:16;4.25;;;2.25;;
18265;SDS011;9259;48.194;16.322;2022-08-01T07:57:44;4.18;;;2.55;;
18265;SDS011;9259;48.194;16.322;2022-08-01T08:00:12;3.72;;;2.30;;
18265;SDS011;9259;48.194;16.322;2022-08-01T08:02:42;5.45;;;2.47;;
18265;SDS011;9259;48.194;16.322;2022-08-01T08:05:10;5.38;;;2.22;;
18265;SDS011;9259;48.194;16.322;2022-08-01T08:07:38;3.80;;;2.22;;
18265;SDS011;9259;48.194;16.322;2022-08-01T08:10:06;4.00;;;2.50;;
18265;SDS011;9259;48.194;16.322;2022-08-01T08:12:38;3.40;;;2.38;;
18265;SDS011;9259;48.194;16.322;2022-08-01T08:15:06;3.38;;;2.10;;
18265;SDS011;9259;48.194;16.322;2022-08-01T08:17:35;4.40;;;2.55;;
18265;SDS011;9259;48.194;16.322;2022-08-01T08:20:04;5.15;;;2.08;;
18265;SDS011;9259;48.194;16.322;2022-08-01T08:22:33;3.90;;;2.22;;
18265;SDS011;9259;48.194;16.322;2022-08-01T08:25:01;3.17;;;2.00;;
18265;SDS011;9259;48.194;16.322;2022-08-01T08:27:30;3.40;;;2.10;;
18265;SDS011;9259;48.194;16.322;2022-08-01T08:29:59;5.03;;;2.10;;
18265;SDS011;9259;48.194;16.322;2022-08-01T08:32:27;3.05;;;2.00;;
18265;SDS011;9259;48.194;16.322;2022-08-01T08:34:58;3.58;;;2.03;;
18265;SDS011;9259;48.194;16.322;2022-08-01T08:37:27;4.18;;;2.03;;
18265;SDS011;9259;48.194;16.322;2022-08-01T08:39:55;2.72;;;1.85;;
18265;SDS011;9259;48.194;16.322;2022-08-01T08:42:23;5.45;;;2.25;;
18265;SDS011;9259;48.194;16.322;2022-08-01T08:44:51;3.28;;;2.10;;
18265;SDS011;9259;48.194;16.322;2022-08-01T08:47:22;3.45;;;2.20;;
18265;SDS011;9259;48.194;16.322;2022-08-01T08:49:54;6.93;;;2.45;;
18265;SDS011;9259;48.194;16.322;2022-08-01T08:52:23;5.55;;;2.40;;
18265;SDS011;9259;48.194;16.322;2022-08-01T08:54:52;2.53;;;2.33;;
18265;SDS011;9259;48.194;16.322;2022-08-01T08:57:21;3.38;;;2.08;;
18265;SDS011;9259;48.194;16.322;2022-08-01T08:59:49;5.70;;;2.40;;
18265;SDS011;9259;48.194;16.322;2022-08-01T09:02:19;2.92;;;2.20;;
18265;SDS011;9259;48.194;16.322;2022-08-01T09:04:49;5.50;;;2.13;;
18265;SDS011;9259;48.194;16.322;2022-08-01T09:07:17;3.63;;;2.45;;
18265;SDS011;9259;48.194;16.322;2022-08-01T09:09:45;4.25;;;2.63;;
18265;SDS011;9259;48.194;16.322;2022-08-01T09:12:15;5.70;;;2.30;;
18265;SDS011;9259;48.194;16.322;2022-08-01T09:14:44;5.40;;;2.50;;
18265;SDS011;9259;48.194;16.322;2022-08-01T09:17:15;6.20;;;2.35;;
18265;SDS011;9259;48.194;16.322;2022-08-01T09:19:45;4.43;;;2.60;;
18265;SDS011;9259;48.194;16.322;2022-08-01T09:22:15;5.20;;;2.55;;
18265;SDS011;9259;48.194;16.322;2022-08-01T09:25:00;8.38;;;2.67;;
18265;SDS011;9259;48.194;16.322;2022-08-01T09:27:30;2.97;;;2.38;;
18265;SDS011;9259;48.194;16.322;2022-08-01T09:30:09;5.32;;;2.85;;
18265;SDS011;9259;48.194;16.322;2022-08-01T09:32:51;5.95;;;2.72;;
18265;SDS011;9259;48.194;16.322;2022-08-01T09:35:26;5.20;;;2.70;;
18265;SDS011;9259;48.194;16.322;2022-08-01T09:38:16;5.82;;;3.63;;
18265;SDS011;9259;48.194;16.322;2022-08-01T09:40:48;5.72;;;2.92;;
18265;SDS011;9259;48.194;16.322;2022-08-01T09:43:18;2.92;;;2.63;;
18265;SDS011;9259;48.194;16.322;2022-08-01T09:45:47;3.45;;;2.30;;
18265;SDS011;9259;48.194;16.322;2022-08-01T09:48:15;4.70;;;2.83;;
18265;SDS011;9259;48.194;16.322;2022-08-01T09:50:46;4.15;;;2.97;;
18265;SDS011;9259;48.194;16.322;2022-08-01T09:53:15;6.60;;;2.92;;
18265;SDS011;9259;48.194;16.322;2022-08-01T09:55:44;4.82;;;2.95;;
18265;SDS011;9259;48.194;16.322;2022-08-01T09:58:12;4.07;;;2.60;;
18265;SDS011;9259;48.194;16.322;2022-08-01T10:00:40;6.72;;;2.90;;
18265;SDS011;9259;48.194;16.322;2022-08-01T10:03:18;4.72;;;2.63;;
18265;SDS011;9259;48.194;16.322;2022-08-01T10:05:50;4.05;;;2.78;;
18265;SDS011;9259;48.194;16.322;2022-08-01T10:08:19;4.18;;;2.75;;
18265;SDS011;9259;48.194;16.322;2022-08-01T10:13:31;5.13;;;2.50;;
18265;SDS011;9259;48.194;16.322;2022-08-01T10:16:00;3.78;;;2.78;;
18265;SDS011;9259;48.194;16.322;2022-08-01T10:18:28;7.03;;;2.78;;
18265;SDS011;9259;48.194;16.322;2022-08-01T10:21:00;3.35;;;2.95;;
18265;SDS011;9259;48.194;16.322;2022-08-01T10:23:30;6.25;;;2.75;;
18265;SDS011;9259;48.194;16.322;2022-08-01T10:26:01;3.58;;;3.00;;
18265;SDS011;9259;48.194;16.322;2022-08-01T10:28:30;4.95;;;3.03;;
18265;SDS011;9259;48.194;16.322;2022-08-01T10:30:58;3.60;;;2.97;;
18265;SDS011;9259;48.194;16.322;2022-08-01T10:33:27;5.53;;;2.67;;
18265;SDS011;9259;48.194;16.322;2022-08-01T10:36:00;6.35;;;2.83;;
18265;SDS011;9259;48.194;16.322;2022-08-01T10:38:29;3.58;;;2.83;;
18265;SDS011;9259;48.194;16.322;2022-08-01T10:40:57;4.03;;;2.60;;
18265;SDS011;9259;48.194;16.322;2022-08-01T10:43:27;3.50;;;2.50;;
18265;SDS011;9259;48.194;16.322;2022-08-01T10:45:55;3.50;;;2.50;;
18265;SDS011;9259;48.194;16.322;2022-08-01T10:48:24;4.50;;;2.60;;
18265;SDS011;9259;48.194;16.322;2022-08-01T10:50:57;4.65;;;2.40;;
18265;SDS011;9259;48.194;16.322;2022-08-01T10:53:28;4.93;;;2.53;;
18265;SDS011;9259;48.194;16.322;2022-08-01T10:55:59;4.97;;;2.45;;
18265;SDS011;9259;48.194;16.322;2022-08-01T10:58:28;6.63;;;2.45;;
18265;SDS011;9259;48.194;16.322;2022-08-01T11:01:18;4.60;;;2.33;;
18265;SDS011;9259;48.194;16.322;2022-08-01T11:06:52;7.70;;;2.72;;
18265;SDS011;9259;48.194;16.322;2022-08-01T11:09:26;3.42;;;2.58;;
18265;SDS011;9259;48.194;16.322;2022-08-01T11:11:56;3.47;;;2.30;;
18265;SDS011;9259;48.194;16.322;2022-08-01T11:14:31;5.03;;;2.25;;
18265;SDS011;9259;48.194;16.322;2022-08-01T11:20:07;3.50;;;2.55;;
18265;SDS011;9259;48.194;16.322;2022-08-01T11:28:41;2.30;;;1.88;;
18265;SDS011;9259;48.194;16.322;2022-08-01T11:31:25;2.90;;;2.42;;
18265;SDS011;9259;48.194;16.322;2022-08-01T11:33:57;2.92;;;2.30;;
18265;SDS011;9259;48.194;16.322;2022-08-01T11:36:26;5.22;;;2.50;;
18265;SDS011;9259;48.194;16.322;2022-08-01T11:39:15;3.33;;;2.53;;
18265;SDS011;9259;48.194;16.322;2022-08-01T11:41:45;5.13;;;2.60;;
18265;SDS011;9259;48.194;16.322;2022-08-01T11:44:16;4.18;;;2.70;;
18265;SDS011;9259;48.194;16.322;2022-08-01T11:46:52;5.75;;;2.35;;
18265;SDS011;9259;48.194;16.322;2022-08-01T11:49:30;5.13;;;2.47;;
18265;SDS011;9259;48.194;16.322;2022-08-01T11:52:03;4.10;;;2.67;;
18265;SDS011;9259;48.194;16.322;2022-08-01T11:54:35;4.68;;;3.13;;
18265;SDS011;9259;48.194;16.322;2022-08-01T11:57:05;5.60;;;2.50;;
18265;SDS011;9259;48.194;16.322;2022-08-01T11:59:37;5.40;;;2.50;;
18265;SDS011;9259;48.194;16.322;2022-08-01T12:02:17;7.88;;;2.78;;
18265;SDS011;9259;48.194;16.322;2022-08-01T12:04:48;3.97;;;3.10;;
18265;SDS011;9259;48.194;16.322;2022-08-01T12:07:22;4.03;;;2.38;;
18265;SDS011;9259;48.194;16.322;2022-08-01T12:09:57;5.38;;;2.70;;
18265;SDS011;9259;48.194;16.322;2022-08-01T12:12:27;6.63;;;2.55;;
18265;SDS011;9259;48.194;16.322;2022-08-01T12:14:57;6.50;;;2.50;;
18265;SDS011;9259;48.194;16.322;2022-08-01T12:17:33;4.45;;;2.80;;
18265;SDS011;9259;48.194;16.322;2022-08-01T12:20:04;5.45;;;2.85;;
18265;SDS011;9259;48.194;16.322;2022-08-01T12:22:35;4.78;;;2.70;;
18265;SDS011;9259;48.194;16.322;2022-08-01T12:25:08;4.32;;;3.08;;
18265;SDS011;9259;48.194;16.322;2022-08-01T12:27:41;5.90;;;2.58;;
18265;SDS011;9259;48.194;16.322;2022-08-01T12:30:11;6.75;;;2.40;;
18265;SDS011;9259;48.194;16.322;2022-08-01T12:32:41;3.60;;;2.20;;
18265;SDS011;9259;48.194;16.322;2022-08-01T12:35:12;2.90;;;1.90;;
18265;SDS011;9259;48.194;16.322;2022-08-01T12:37:42;2.10;;;1.90;;
18265;SDS011;9259;48.194;16.322;2022-08-01T12:40:15;4.22;;;1.80;;
18265;SDS011;9259;48.194;16.322;2022-08-01T12:42:45;3.33;;;1.58;;
18265;SDS011;9259;48.194;16.322;2022-08-01T12:45:16;2.58;;;1.42;;
18265;SDS011;9259;48.194;16.322;2022-08-01T12:47:46;2.08;;;1.50;;
18265;SDS011;9259;48.194;16.322;2022-08-01T12:50:15;3.92;;;1.60;;
18265;SDS011;9259;48.194;16.322;2022-08-01T12:52:46;3.70;;;1.77;;
18265;SDS011;9259;48.194;16.322;2022-08-01T12:55:16;2.47;;;1.70;;
18265;SDS011;9259;48.194;16.322;2022-08-01T12:57:46;3.25;;;1.80;;
18265;SDS011;9259;48.194;16.322;2022-08-01T13:00:20;3.53;;;1.70;;
18265;SDS011;9259;48.194;16.322;2022-08-01T13:03:00;2.05;;;1.60;;
18265;SDS011;9259;48.194;16.322;2022-08-01T13:05:40;5.45;;;1.98;;
18265;SDS011;9259;48.194;16.322;2022-08-01T13:08:11;3.42;;;2.50;;
18265;SDS011;9259;48.194;16.322;2022-08-01T13:10:42;4.68;;;1.83;;
18265;SDS011;9259;48.194;16.322;2022-08-01T13:13:11;2.50;;;2.22;;
18265;SDS011;9259;48.194;16.322;2022-08-01T13:15:41;4.32;;;1.85;;
18265;SDS011;9259;48.194;16.322;2022-08-01T13:18:23;4.40;;;2.25;;
18265;SDS011;9259;48.194;16.322;2022-08-01T13:21:08;5.85;;;2.60;;
18265;SDS011;9259;48.194;16.322;2022-08-01T13:23:42;6.15;;;2.50;;
18265;SDS011;9259;48.194;16.322;2022-08-01T13:29:13;4.05;;;2.80;;
18265;SDS011;9259;48.194;16.322;2022-08-01T13:31:43;4.28;;;2.25;;
18265;SDS011;9259;48.194;16.322;2022-08-01T13:34:11;2.97;;;2.45;;
18265;SDS011;9259;48.194;16.322;2022-08-01T13:36:40;3.58;;;2.17;;
18265;SDS011;9259;48.194;16.322;2022-08-01T13:39:08;3.88;;;2.33;;
18265;SDS011;9259;48.194;16.322;2022-08-01T13:41:54;3.15;;;1.90;;
18265;SDS011;9259;48.194;16.322;2022-08-01T13:44:22;3.60;;;1.80;;
18265;SDS011;9259;48.194;16.322;2022-08-01T13:46:50;3.20;;;1.48;;
18265;SDS011;9259;48.194;16.322;2022-08-01T13:49:18;3.58;;;1.70;;
18265;SDS011;9259;48.194;16.322;2022-08-01T13:51:45;3.63;;;1.50;;
18265;SDS011;9259;48.194;16.322;2022-08-01T13:54:15;3.72;;;1.60;;
18265;SDS011;9259;48.194;16.322;2022-08-01T13:56:43;4.68;;;1.60;;
18265;SDS011;9259;48.194;16.322;2022-08-01T13:59:13;2.85;;;1.58;;
18265;SDS011;9259;48.194;16.322;2022-08-01T14:01:41;2.75;;;1.55;;
18265;SDS011;9259;48.194;16.322;2022-08-01T14:04:09;2.38;;;1.52;;
18265;SDS011;9259;48.194;16.322;2022-08-01T14:06:36;4.28;;;1.50;;
18265;SDS011;9259;48.194;16.322;2022-08-01T14:09:05;1.80;;;1.50;;
18265;SDS011;9259;48.194;16.322;2022-08-01T14:11:33;3.03;;;1.45;;
18265;SDS011;9259;48.194;16.322;2022-08-01T14:14:00;3.08;;;1.30;;
18265;SDS011;9259;48.194;16.322;2022-08-01T14:16:30;2.92;;;1.45;;
18265;SDS011;9259;48.194;16.322;2022-08-01T14:18:57;1.55;;;1.45;;
18265;SDS011;9259;48.194;16.322;2022-08-01T14:21:25;4.00;;;1.55;;
18265;SDS011;9259;48.194;16.322;2022-08-01T14:23:53;2.65;;;1.40;;
18265;SDS011;9259;48.194;16.322;2022-08-01T14:26:21;3.35;;;1.20;;
18265;SDS011;9259;48.194;16.322;2022-08-01T14:28:49;2.03;;;1.40;;
18265;SDS011;9259;48.194;16.322;2022-08-01T14:31:16;2.65;;;1.42;;
18265;SDS011;9259;48.194;16.322;2022-08-01T14:33:46;3.20;;;1.23;;
18265;SDS011;9259;48.194;16.322;2022-08-01T14:36:13;1.83;;;1.35;;
18265;SDS011;9259;48.194;16.322;2022-08-01T14:38:41;3.10;;;1.30;;
18265;SDS011;9259;48.194;16.322;2022-08-01T14:41:09;2.38;;;1.38;;
18265;SDS011;9259;48.194;16.322;2022-08-01T14:43:37;1.73;;;1.55;;
18265;SDS011;9259;48.194;16.322;2022-08-01T14:46:08;2.00;;;1.33;;
18265;SDS011;9259;48.194;16.322;2022-08-01T14:48:36;1.40;;;1.30;;
18265;SDS011;9259;48.194;16.322;2022-08-01T14:51:05;2.78;;;1.27;;
18265;SDS011;9259;48.194;16.322;2022-08-01T14:53:33;3.40;;;1.55;;
18265;SDS011;9259;48.194;16.322;2022-08-01T14:56:03;2.65;;;1.38;;
18265;SDS011;9259;48.194;16.322;2022-08-01T14:58:32;1.50;;;1.40;;
18265;SDS011;9259;48.194;16.322;2022-08-01T15:01:00;1.98;;;1.40;;
18265;SDS011;9259;48.194;16.322;2022-08-01T15:03:30;3.60;;;1.70;;
18265;SDS011;9259;48.194;16.322;2022-08-01T15:05:57;2.38;;;1.50;;
18265;SDS011;9259;48.194;16.322;2022-08-01T15:08:28;2.58;;;1.70;;
18265;SDS011;9259;48.194;16.322;2022-08-01T15:10:57;3.15;;;1.90;;
18265;SDS011;9259;48.194;16.322;2022-08-01T15:13:26;3.00;;;1.67;;
18265;SDS011;9259;48.194;16.322;2022-08-01T15:15:54;5.63;;;1.95;;
18265;SDS011;9259;48.194;16.322;2022-08-01T15:18:22;2.53;;;1.83;;
18265;SDS011;9259;48.194;16.322;2022-08-01T15:20:50;3.83;;;1.83;;
18265;SDS011;9259;48.194;16.322;2022-08-01T15:23:18;3.25;;;1.90;;
18265;SDS011;9259;48.194;16.322;2022-08-01T15:25:48;3.35;;;1.75;;